KFMH

Cape Cod Coast Guard Air Station Airport

Falmouth, Massachusetts, USA
KFMH 212335Z 2200/2224 29017G29KT P6SM VCSH BKN035 FM220600 31015G25KT P6SM SCT080 FM222100 30008KT P6SM SKC
Issued Valid From Valid To
Jan-21 @ 23:35 UTC
(35 minutes ago)
Jan-22 @ 00:00 UTC
(10 minutes ago)
Jan-23 @ 00:00 UTC
(in 24 hours)
Jan-22 @ 00:00 to Jan-22 @ 06:00
KFMH 212335Z 2200/2224 29017G29KT P6SM VCSH BKN035
Wind Visibility Clouds
290° at 17 knots
 Gusting to 29 knots
Greater than 6 miles
  • Broken at 3,500' AGL
From Jan-22 @ 06:00 to Jan-22 @ 21:00
FM220600 31015G25KT P6SM SCT080
Wind Visibility Clouds
310° at 15 knots
 Gusting to 25 knots
Greater than 6 miles
  • Scattered at 8,000' AGL
From Jan-22 @ 21:00 to Jan-23 @ 00:00
FM222100 30008KT P6SM SKC
Wind Visibility Clouds
300° at 8 knots Greater than 6 miles
  • Clear skies
KFMH 212335Z 2200/2224 29017G29KT P6SM VCSH BKN035 FM220600 31015G25KT P6SM SCT080 FM222100 30008KT P6SM SKC
Issued Jan-21 @ 23:35 UTC
(35 minutes ago)
Valid From Jan-22 @ 00:00 UTC
(10 minutes ago)
Valid To Jan-23 @ 00:00 UTC
(in 24 hours)
Jan-22 @ 00:00 - Jan-22 @ 06:00
Wind Visibility
290° at 17 knots
 Gusting to 29 knots
Greater than 6 miles
Clouds
  • Broken at 3,500' AGL
From Jan-22 @ 06:00 - Jan-22 @ 21:00
Wind Visibility
310° at 15 knots
 Gusting to 25 knots
Greater than 6 miles
Clouds
  • Scattered at 8,000' AGL
From Jan-22 @ 21:00 - Jan-23 @ 00:00
Wind Visibility
300° at 8 knots Greater than 6 miles
Clouds
  • Clear skies